createdAt,value
2023-03-31T00:01:01.006Z,37.96
2023-03-31T00:03:29.546Z,37.92
2023-03-31T00:05:59.000Z,37.92
2023-03-31T00:08:30.850Z,37.98
2023-03-31T00:11:01.515Z,38.01
2023-03-31T00:13:30.398Z,38.03
2023-03-31T00:16:02.495Z,37.95
2023-03-31T00:18:31.163Z,37.93
2023-03-31T00:21:08.842Z,37.95
2023-03-31T00:23:37.198Z,37.96
2023-03-31T00:26:06.479Z,37.88
2023-03-31T00:28:34.754Z,37.92
2023-03-31T00:31:04.986Z,38.01
2023-03-31T00:33:33.318Z,38.04
2023-03-31T00:36:02.478Z,38.03
2023-03-31T00:38:31.224Z,37.88
2023-03-31T00:40:59.697Z,37.96
2023-03-31T00:43:33.212Z,37.90
2023-03-31T00:46:18.137Z,37.97
2023-03-31T00:48:51.012Z,37.86
2023-03-31T00:51:21.735Z,38.01
2023-03-31T00:53:57.579Z,37.95
2023-03-31T00:56:26.652Z,37.85
2023-03-31T00:58:58.094Z,37.99
2023-03-31T01:01:27.980Z,38.00
2023-03-31T01:03:57.562Z,37.88
2023-03-31T01:06:26.433Z,37.89
2023-03-31T01:08:54.704Z,37.91
2023-03-31T01:11:27.545Z,37.92
2023-03-31T01:13:58.132Z,37.97
2023-03-31T01:16:27.780Z,37.99
2023-03-31T01:18:57.681Z,37.98
2023-03-31T01:22:11.372Z,38.10
2023-03-31T01:25:17.538Z,37.91
2023-03-31T01:27:59.523Z,37.88
2023-03-31T01:30:48.605Z,38.10
2023-03-31T01:33:51.740Z,38.05
2023-03-31T01:37:11.684Z,37.95
2023-03-31T01:40:10.870Z,37.91
2023-03-31T01:42:44.273Z,37.98
2023-03-31T01:45:21.544Z,37.92
2023-03-31T01:47:54.716Z,37.89
2023-03-31T01:50:27.785Z,37.99
2023-03-31T01:53:04.932Z,37.85
2023-03-31T01:55:38.239Z,37.83
2023-03-31T01:58:12.519Z,38.02
2023-03-31T02:00:46.884Z,37.87
2023-03-31T02:03:19.452Z,37.82
2023-03-31T02:05:53.004Z,37.95
2023-03-31T02:08:26.256Z,37.64
2023-03-31T02:10:57.848Z,38.05
2023-03-31T02:13:29.681Z,37.90
2023-03-31T02:16:02.599Z,38.05
2023-03-31T02:18:38.455Z,37.90
2023-03-31T02:21:08.071Z,37.82
2023-03-31T02:23:39.091Z,37.83
2023-03-31T02:26:11.515Z,37.85
2023-03-31T02:28:40.237Z,37.95
2023-03-31T02:31:22.464Z,37.99
2023-03-31T02:33:51.164Z,38.00
2023-03-31T02:36:21.602Z,37.82
2023-03-31T02:38:55.486Z,37.90
2023-03-31T02:41:25.386Z,37.86
2023-03-31T02:43:53.714Z,37.82
2023-03-31T02:46:22.811Z,37.86
2023-03-31T02:48:54.282Z,37.83
2023-03-31T02:52:13.094Z,37.92
2023-03-31T02:55:07.620Z,38.01
2023-03-31T02:58:06.794Z,37.92
2023-03-31T03:00:51.079Z,37.96
2023-03-31T03:03:33.956Z,37.90
2023-03-31T03:06:13.816Z,37.96
2023-03-31T03:09:03.660Z,38.09
2023-03-31T03:11:41.331Z,37.94
2023-03-31T03:14:21.174Z,37.99
2023-03-31T03:16:54.872Z,37.94
2023-03-31T03:19:24.316Z,37.94
2023-03-31T03:21:52.402Z,37.98
2023-03-31T03:24:22.968Z,38.00
2023-03-31T03:26:52.072Z,38.05
2023-03-31T03:29:21.732Z,37.84
2023-03-31T03:31:49.842Z,37.97
2023-03-31T03:34:18.898Z,37.93
2023-03-31T03:36:47.656Z,37.85
2023-03-31T03:39:16.064Z,37.99
2023-03-31T03:41:44.172Z,37.95
2023-03-31T03:44:12.295Z,37.87
2023-03-31T03:46:41.757Z,37.83
2023-03-31T03:49:10.237Z,37.85
2023-03-31T03:51:38.286Z,37.96
2023-03-31T03:54:06.622Z,37.97
2023-03-31T03:56:34.705Z,37.86
2023-03-31T03:59:02.744Z,37.94
2023-03-31T04:01:30.999Z,37.80
2023-03-31T04:04:00.583Z,37.83
2023-03-31T04:06:28.724Z,37.91
2023-03-31T04:08:56.857Z,37.81
2023-03-31T04:11:25.022Z,37.81
2023-03-31T04:13:53.484Z,37.68
2023-03-31T04:16:23.198Z,37.80
2023-03-31T04:18:52.975Z,37.99
2023-03-31T04:21:23.975Z,37.99
2023-03-31T04:23:59.077Z,37.78
2023-03-31T04:26:39.144Z,37.90
2023-03-31T04:29:07.808Z,37.85
2023-03-31T04:31:38.913Z,37.84
2023-03-31T04:34:13.285Z,37.80
2023-03-31T04:36:47.760Z,37.84
2023-03-31T04:39:18.350Z,37.97
2023-03-31T04:41:46.595Z,37.94
2023-03-31T04:44:14.713Z,37.81
2023-03-31T04:46:42.740Z,38.01
2023-03-31T04:49:10.823Z,37.96
2023-03-31T04:51:39.045Z,37.90
2023-03-31T04:54:08.759Z,38.05
2023-03-31T04:56:36.896Z,37.77
2023-03-31T04:59:05.264Z,37.97
2023-03-31T05:01:36.645Z,37.82
2023-03-31T05:04:04.928Z,37.81
2023-03-31T05:06:33.005Z,37.97
2023-03-31T05:09:01.261Z,37.91
2023-03-31T05:11:31.044Z,38.05
2023-03-31T05:13:59.145Z,37.79
2023-03-31T05:16:27.253Z,37.84
2023-03-31T05:18:55.737Z,37.86
2023-03-31T05:21:24.385Z,37.90
2023-03-31T05:23:52.525Z,37.76
2023-03-31T05:26:22.449Z,37.84
2023-03-31T05:28:51.993Z,37.88
2023-03-31T05:31:20.423Z,37.81
2023-03-31T05:33:48.516Z,37.82
2023-03-31T05:36:18.631Z,37.89
2023-03-31T05:38:47.819Z,37.82
2023-03-31T05:41:17.072Z,37.77
2023-03-31T05:43:45.358Z,37.77
2023-03-31T05:46:14.893Z,37.91
2023-03-31T05:48:43.178Z,37.54
2023-03-31T05:51:11.337Z,37.84
2023-03-31T05:53:39.413Z,37.95
2023-03-31T05:56:08.572Z,37.95
2023-03-31T05:58:37.628Z,37.80
2023-03-31T06:01:08.153Z,37.95
2023-03-31T06:03:41.384Z,37.81
2023-03-31T06:06:10.477Z,37.84
2023-03-31T06:08:39.040Z,37.78
2023-03-31T06:11:08.287Z,37.78
2023-03-31T06:13:36.818Z,37.80
2023-03-31T06:16:05.947Z,37.80
2023-03-31T06:18:36.319Z,37.95
2023-03-31T06:21:07.051Z,37.85
2023-03-31T06:23:35.839Z,37.84
2023-03-31T06:26:07.204Z,37.93
2023-03-31T06:28:35.464Z,37.88
2023-03-31T06:31:05.218Z,37.83
2023-03-31T06:33:34.227Z,38.03
2023-03-31T06:36:04.411Z,38.00
2023-03-31T06:38:34.080Z,38.04
2023-03-31T06:41:02.306Z,37.94
2023-03-31T06:43:31.098Z,37.83
2023-03-31T06:45:59.414Z,37.94
2023-03-31T06:48:28.916Z,37.96
2023-03-31T06:51:00.618Z,37.80
2023-03-31T06:53:29.188Z,37.91
2023-03-31T06:55:59.107Z,38.11
2023-03-31T06:58:29.730Z,37.86
2023-03-31T07:00:59.883Z,37.94
2023-03-31T07:03:30.373Z,38.10
2023-03-31T07:05:58.970Z,37.77
2023-03-31T07:08:27.283Z,37.91
2023-03-31T07:10:57.961Z,37.79
2023-03-31T07:13:29.473Z,38.01
2023-03-31T07:15:57.813Z,37.99
2023-03-31T07:18:35.132Z,38.03
2023-03-31T07:21:05.823Z,37.67
2023-03-31T07:23:36.377Z,37.94
2023-03-31T07:26:04.574Z,37.90
2023-03-31T07:28:34.584Z,37.80
2023-03-31T07:31:02.774Z,37.82
2023-03-31T07:33:31.092Z,37.95
2023-03-31T07:36:10.747Z,38.01
2023-03-31T07:38:40.799Z,37.85
2023-03-31T07:41:13.095Z,37.95
2023-03-31T07:43:42.744Z,37.92
2023-03-31T07:46:16.663Z,37.90
2023-03-31T07:48:46.678Z,37.96
2023-03-31T07:51:15.411Z,37.94
2023-03-31T07:53:43.982Z,38.10
2023-03-31T07:56:12.337Z,37.83
2023-03-31T07:58:40.608Z,37.95
2023-03-31T08:01:10.173Z,37.89
2023-03-31T08:03:38.288Z,37.82
2023-03-31T08:06:06.787Z,37.82
2023-03-31T08:08:35.069Z,37.92
2023-03-31T08:11:03.684Z,37.95
2023-03-31T08:13:31.897Z,37.83
2023-03-31T08:16:00.036Z,38.03
2023-03-31T08:18:29.724Z,37.99
2023-03-31T08:20:57.952Z,37.87
2023-03-31T08:23:27.907Z,37.97
2023-03-31T08:25:56.026Z,37.87
2023-03-31T08:28:24.079Z,37.85
2023-03-31T08:30:52.701Z,37.89
2023-03-31T08:33:20.836Z,37.89
2023-03-31T08:35:50.459Z,38.01
2023-03-31T08:38:18.687Z,38.02
2023-03-31T08:40:46.795Z,37.95
2023-03-31T08:43:24.377Z,37.93
2023-03-31T08:48:26.095Z,37.92
2023-03-31T08:51:01.310Z,37.91
2023-03-31T08:53:32.580Z,37.94
2023-03-31T08:56:02.202Z,37.92
2023-03-31T08:58:39.542Z,37.85
2023-03-31T09:01:17.071Z,37.80
2023-03-31T09:03:58.386Z,37.79
2023-03-31T09:06:38.256Z,37.81
2023-03-31T09:09:12.798Z,37.94
2023-03-31T09:11:48.690Z,37.89
2023-03-31T09:14:28.171Z,37.93
2023-03-31T09:17:14.172Z,38.00
2023-03-31T09:19:46.875Z,37.92
2023-03-31T09:22:21.270Z,37.91
2023-03-31T09:24:57.286Z,37.84
2023-03-31T09:27:31.440Z,37.81
2023-03-31T09:30:05.787Z,37.83
2023-03-31T09:32:34.398Z,37.71
2023-03-31T09:35:14.163Z,37.91
2023-03-31T09:37:43.776Z,37.96
2023-03-31T09:40:18.190Z,37.94
2023-03-31T09:42:47.678Z,37.88
2023-03-31T09:45:18.222Z,37.79
2023-03-31T09:47:48.840Z,37.89
2023-03-31T09:50:17.571Z,37.91
2023-03-31T09:52:53.330Z,37.85
2023-03-31T09:55:38.250Z,37.81
2023-03-31T09:58:09.724Z,37.79
2023-03-31T10:00:37.989Z,37.85
2023-03-31T10:03:08.530Z,37.97
2023-03-31T10:05:40.148Z,37.80
2023-03-31T10:08:32.116Z,37.92
2023-03-31T10:11:11.442Z,37.88
2023-03-31T10:13:47.649Z,37.94
2023-03-31T10:16:26.188Z,37.90
2023-03-31T10:19:14.303Z,37.81
2023-03-31T10:21:48.997Z,37.87
2023-03-31T10:24:21.450Z,37.86
2023-03-31T10:26:52.129Z,37.78
2023-03-31T10:29:25.795Z,37.77
2023-03-31T10:31:57.601Z,37.90
2023-03-31T10:34:27.281Z,37.76
2023-03-31T10:36:56.555Z,37.62
2023-03-31T10:39:33.461Z,37.71
2023-03-31T10:42:02.772Z,37.73
2023-03-31T10:44:37.198Z,37.83
2023-03-31T10:47:11.478Z,37.73
2023-03-31T10:49:41.314Z,37.67
2023-03-31T10:52:19.529Z,37.59
2023-03-31T10:54:56.589Z,37.60
2023-03-31T10:57:35.943Z,37.84
2023-03-31T11:00:17.278Z,37.74
2023-03-31T11:03:19.108Z,37.66
2023-03-31T11:05:52.035Z,37.77
2023-03-31T11:08:38.684Z,37.73
2023-03-31T11:11:24.096Z,37.66
2023-03-31T11:14:01.737Z,37.72
2023-03-31T11:16:41.518Z,37.67
2023-03-31T11:19:21.809Z,37.79
2023-03-31T11:22:01.006Z,37.63
2023-03-31T11:24:55.034Z,37.71
2023-03-31T11:27:37.124Z,37.65
2023-03-31T11:30:12.520Z,37.72
2023-03-31T11:32:57.589Z,37.63
2023-03-31T11:35:45.518Z,37.80
2023-03-31T11:38:38.328Z,37.73
2023-03-31T11:41:09.912Z,37.74
2023-03-31T11:43:44.632Z,37.84
2023-03-31T11:46:17.089Z,37.74
2023-03-31T11:48:49.862Z,37.89
2023-03-31T11:51:22.606Z,37.57
2023-03-31T11:53:54.358Z,37.65
2023-03-31T11:56:24.292Z,37.55
2023-03-31T11:59:00.581Z,37.57
2023-03-31T12:01:43.775Z,37.65
2023-03-31T12:04:23.903Z,37.68
2023-03-31T12:06:57.761Z,37.64
2023-03-31T12:09:31.541Z,37.64
2023-03-31T12:12:06.485Z,37.44
2023-03-31T12:14:40.776Z,37.69
2023-03-31T12:17:13.182Z,37.64
2023-03-31T12:19:48.718Z,37.63
2023-03-31T12:22:21.571Z,37.70
2023-03-31T12:24:50.527Z,37.76
2023-03-31T12:27:23.219Z,37.60
2023-03-31T12:29:59.383Z,37.48
2023-03-31T12:32:32.216Z,37.59
2023-03-31T12:35:06.263Z,37.70
2023-03-31T12:37:53.584Z,37.64
2023-03-31T12:40:37.006Z,37.75
2023-03-31T12:43:25.845Z,37.61
2023-03-31T12:46:05.593Z,37.72
2023-03-31T12:48:51.423Z,37.60
2023-03-31T12:51:40.796Z,37.49
2023-03-31T12:54:24.087Z,37.63
2023-03-31T12:57:20.655Z,37.79
2023-03-31T13:00:19.061Z,37.98
2023-03-31T13:02:49.927Z,37.81
2023-03-31T13:05:48.364Z,38.19
2023-03-31T13:08:53.412Z,38.51
2023-03-31T13:11:23.175Z,37.86
2023-03-31T13:14:02.418Z,38.09
2023-03-31T13:16:31.438Z,37.74
2023-03-31T13:19:01.648Z,38.08
2023-03-31T13:21:29.836Z,37.91
2023-03-31T13:24:02.626Z,37.95
2023-03-31T13:26:41.983Z,38.14
2023-03-31T13:29:22.419Z,38.12
2023-03-31T13:32:21.663Z,38.31
2023-03-31T13:35:05.799Z,38.21
2023-03-31T13:37:51.544Z,38.15
2023-03-31T13:40:57.363Z,38.35
2023-03-31T13:43:58.528Z,38.39
2023-03-31T13:46:52.200Z,38.38
2023-03-31T13:49:48.720Z,38.42
2023-03-31T13:52:27.875Z,38.21
2023-03-31T13:55:19.310Z,38.51
2023-03-31T13:58:35.001Z,38.64
2023-03-31T14:01:29.862Z,38.53
2023-03-31T14:04:10.466Z,38.36
2023-03-31T14:06:41.471Z,38.25
2023-03-31T14:09:14.783Z,38.29
2023-03-31T14:11:42.916Z,38.29
2023-03-31T14:14:15.663Z,38.31
2023-03-31T14:16:47.669Z,38.32
2023-03-31T14:19:43.520Z,38.64
2023-03-31T14:22:21.007Z,38.30
2023-03-31T14:25:00.452Z,38.37
2023-03-31T14:27:48.627Z,38.75
2023-03-31T14:30:27.316Z,38.33
2023-03-31T14:33:09.763Z,38.26
2023-03-31T14:35:44.401Z,38.28
2023-03-31T14:38:19.600Z,38.42
2023-03-31T14:40:56.480Z,38.38
2023-03-31T14:43:29.646Z,38.25
2023-03-31T14:46:02.823Z,38.33
2023-03-31T14:48:33.126Z,38.33
2023-03-31T14:51:04.307Z,38.39
2023-03-31T14:53:32.547Z,38.41
2023-03-31T14:56:08.485Z,38.48
2023-03-31T14:58:40.004Z,38.34
2023-03-31T15:01:12.914Z,38.47
2023-03-31T15:03:43.443Z,38.63
2023-03-31T15:06:14.993Z,38.49
2023-03-31T15:08:44.625Z,38.44
2023-03-31T15:11:21.443Z,38.69
2023-03-31T15:14:04.327Z,38.55
2023-03-31T15:16:38.118Z,38.65
2023-03-31T15:19:15.808Z,38.71
2023-03-31T15:21:45.666Z,38.67
2023-03-31T15:24:15.180Z,38.71
2023-03-31T15:26:49.396Z,38.59
2023-03-31T15:29:22.039Z,38.82
2023-03-31T15:31:50.793Z,38.62
2023-03-31T15:34:25.714Z,38.47
2023-03-31T15:36:57.016Z,38.52
2023-03-31T15:39:27.537Z,38.68
2023-03-31T15:41:57.758Z,38.47
2023-03-31T15:44:40.676Z,38.49
2023-03-31T15:47:15.022Z,38.46
2023-03-31T15:49:51.218Z,38.44
2023-03-31T15:52:24.310Z,38.41
2023-03-31T15:54:53.209Z,38.41
2023-03-31T15:57:23.169Z,38.25
2023-03-31T16:02:47.135Z,38.43
2023-03-31T16:05:37.397Z,38.36
2023-03-31T16:08:26.261Z,38.32
2023-03-31T16:11:00.469Z,38.49
2023-03-31T16:13:33.489Z,38.41
2023-03-31T16:13:34.647Z,38.28
2023-03-31T16:16:02.388Z,38.31
2023-03-31T16:18:34.925Z,38.30
2023-03-31T16:21:06.024Z,38.24
2023-03-31T16:23:41.299Z,38.26
2023-03-31T16:26:09.895Z,38.31
2023-03-31T16:28:39.910Z,38.31
2023-03-31T16:31:35.722Z,38.26
2023-03-31T16:34:06.028Z,38.26
2023-03-31T16:36:34.273Z,38.36
2023-03-31T16:39:05.229Z,38.30
2023-03-31T16:41:34.805Z,38.20
2023-03-31T16:44:06.374Z,38.29
2023-03-31T16:46:34.945Z,38.24
2023-03-31T16:49:03.229Z,38.27
2023-03-31T16:51:31.516Z,38.17
2023-03-31T16:53:59.693Z,38.25
2023-03-31T16:56:27.938Z,38.24
2023-03-31T16:58:56.391Z,38.27
2023-03-31T17:01:26.057Z,38.14
2023-03-31T17:03:55.240Z,38.12
2023-03-31T17:06:23.800Z,38.14
2023-03-31T17:08:52.032Z,38.39
2023-03-31T17:11:20.172Z,38.23
2023-03-31T17:13:48.765Z,38.11
2023-03-31T17:16:24.286Z,38.12
2023-03-31T17:19:02.559Z,38.24
2023-03-31T17:21:30.935Z,38.15
2023-03-31T17:24:01.620Z,38.15
2023-03-31T17:26:30.923Z,38.19
2023-03-31T17:29:00.685Z,38.20
2023-03-31T17:31:37.356Z,38.20
2023-03-31T17:34:07.417Z,38.18
2023-03-31T17:36:36.837Z,38.29
2023-03-31T17:39:07.497Z,38.37
2023-03-31T17:41:37.969Z,38.27
2023-03-31T17:44:08.865Z,38.26
2023-03-31T17:46:37.652Z,38.30
2023-03-31T17:49:07.893Z,38.20
2023-03-31T17:51:36.772Z,38.41
2023-03-31T17:54:05.679Z,38.37
2023-03-31T17:56:35.129Z,38.28
2023-03-31T17:59:03.660Z,38.27
2023-03-31T18:01:45.238Z,38.58
2023-03-31T18:04:15.892Z,38.36
2023-03-31T18:06:45.439Z,38.41
2023-03-31T18:09:13.822Z,38.41
2023-03-31T18:11:44.854Z,38.36
2023-03-31T18:14:13.754Z,38.33
2023-03-31T18:16:42.537Z,38.41
2023-03-31T18:19:11.158Z,38.46
2023-03-31T18:21:40.700Z,38.27
2023-03-31T18:24:09.182Z,38.40
2023-03-31T18:26:43.737Z,38.57
2023-03-31T18:29:13.608Z,38.45
2023-03-31T18:31:43.764Z,38.49
2023-03-31T18:34:13.625Z,38.37
2023-03-31T18:36:43.522Z,38.36
2023-03-31T18:39:12.194Z,38.40
2023-03-31T18:41:47.874Z,38.39
2023-03-31T18:44:16.890Z,38.38
2023-03-31T18:46:45.826Z,38.33
2023-03-31T18:49:15.453Z,38.27
2023-03-31T18:51:45.029Z,38.28
2023-03-31T18:54:13.329Z,38.20
2023-03-31T18:56:41.581Z,38.20
2023-03-31T18:59:09.990Z,38.20
2023-03-31T19:01:40.340Z,38.30
2023-03-31T19:04:09.546Z,38.16
2023-03-31T19:06:38.614Z,38.04
2023-03-31T19:09:11.565Z,38.23
2023-03-31T19:11:40.825Z,38.22
2023-03-31T19:14:09.465Z,38.10
2023-03-31T19:16:42.853Z,38.24
2023-03-31T19:19:12.986Z,38.03
2023-03-31T19:21:42.902Z,38.05
2023-03-31T19:24:13.876Z,38.21
2023-03-31T19:26:48.336Z,38.16
2023-03-31T19:29:17.005Z,38.12
2023-03-31T19:31:47.898Z,38.14
2023-03-31T19:34:17.014Z,38.05
2023-03-31T19:36:47.516Z,38.13
2023-03-31T19:39:17.129Z,37.96
2023-03-31T19:41:45.339Z,38.12
2023-03-31T19:44:13.923Z,38.00
2023-03-31T19:46:48.966Z,38.08
2023-03-31T19:49:17.980Z,38.06
2023-03-31T19:51:47.173Z,38.06
2023-03-31T19:54:17.507Z,38.02
2023-03-31T19:56:45.985Z,38.12
2023-03-31T19:59:16.003Z,38.05
2023-03-31T20:01:44.364Z,38.20
2023-03-31T20:04:18.174Z,37.97
2023-03-31T20:06:48.396Z,38.08
2023-03-31T20:09:20.489Z,38.06
2023-03-31T20:11:55.771Z,38.13
2023-03-31T20:14:25.430Z,37.88
2023-03-31T20:16:55.725Z,37.94
2023-03-31T20:19:24.441Z,37.92
2023-03-31T20:21:56.140Z,37.76
2023-03-31T20:24:27.550Z,37.90
2023-03-31T20:26:55.827Z,37.95
2023-03-31T20:29:24.964Z,37.81
2023-03-31T20:31:54.638Z,37.97
2023-03-31T20:34:23.756Z,38.00
2023-03-31T20:36:54.021Z,37.81
2023-03-31T20:39:23.190Z,37.88
2023-03-31T20:41:56.878Z,37.77
2023-03-31T20:44:26.362Z,37.87
2023-03-31T20:46:56.458Z,37.91
2023-03-31T20:49:26.155Z,37.85
2023-03-31T20:51:56.684Z,37.78
2023-03-31T20:54:26.079Z,37.83
2023-03-31T20:56:56.828Z,37.74
2023-03-31T20:59:25.645Z,37.79
2023-03-31T21:01:53.958Z,37.83
2023-03-31T21:04:25.527Z,37.82
2023-03-31T21:06:54.615Z,37.90
2023-03-31T21:09:24.112Z,37.75
2023-03-31T21:11:52.912Z,37.83
2023-03-31T21:14:22.882Z,37.75
2023-03-31T21:16:51.152Z,37.69
2023-03-31T21:19:19.451Z,37.71
2023-03-31T21:21:48.005Z,37.69
2023-03-31T21:24:16.430Z,37.64
2023-03-31T21:26:44.531Z,37.78
2023-03-31T21:29:12.818Z,37.68
2023-03-31T21:31:45.321Z,37.73
2023-03-31T21:34:14.453Z,37.72
2023-03-31T21:36:42.500Z,37.68
2023-03-31T21:39:11.430Z,37.74
2023-03-31T21:41:40.687Z,37.48
2023-03-31T21:44:10.063Z,37.51
2023-03-31T21:46:38.312Z,37.71
2023-03-31T21:49:08.080Z,37.69
2023-03-31T21:51:36.784Z,37.66
2023-03-31T21:54:04.995Z,37.66
2023-03-31T21:56:33.009Z,37.59
2023-03-31T21:59:01.543Z,37.58
2023-03-31T22:01:29.907Z,37.56
2023-03-31T22:03:58.055Z,37.54
2023-03-31T22:06:27.572Z,37.58
2023-03-31T22:08:55.783Z,37.68
2023-03-31T22:11:24.647Z,37.45
2023-03-31T22:13:52.828Z,37.71
2023-03-31T22:16:23.478Z,37.49
2023-03-31T22:18:53.010Z,37.39
2023-03-31T22:21:22.884Z,37.51
2023-03-31T22:23:54.446Z,37.41
2023-03-31T22:26:22.983Z,37.46
2023-03-31T22:28:51.756Z,37.60
2023-03-31T22:31:20.207Z,37.45
2023-03-31T22:33:48.385Z,37.47
2023-03-31T22:36:16.713Z,37.38
2023-03-31T22:38:45.091Z,37.56
2023-03-31T22:41:14.776Z,37.40
2023-03-31T22:43:45.373Z,37.36
2023-03-31T22:46:15.148Z,37.55
2023-03-31T22:48:44.148Z,37.49
2023-03-31T22:51:12.473Z,37.46
2023-03-31T22:53:40.625Z,37.44
2023-03-31T22:56:11.600Z,37.35
2023-03-31T22:58:41.453Z,37.44
2023-03-31T23:01:15.786Z,37.47
2023-03-31T23:03:45.187Z,37.43
2023-03-31T23:06:14.471Z,37.53
2023-03-31T23:08:44.852Z,37.27
2023-03-31T23:11:14.129Z,37.35
2023-03-31T23:13:43.676Z,37.25
2023-03-31T23:16:15.780Z,37.22
2023-03-31T23:18:46.905Z,37.25
2023-03-31T23:21:19.388Z,37.37
2023-03-31T23:23:47.508Z,37.26
2023-03-31T23:26:19.284Z,37.26
2023-03-31T23:28:50.018Z,37.25
2023-03-31T23:31:19.786Z,37.24
2023-03-31T23:33:48.434Z,37.24
2023-03-31T23:36:18.575Z,37.31
2023-03-31T23:38:47.082Z,37.28
2023-03-31T23:41:15.582Z,37.19
2023-03-31T23:43:44.298Z,37.25
2023-03-31T23:46:14.380Z,37.21
2023-03-31T23:48:42.573Z,37.21
2023-03-31T23:51:11.394Z,37.08
2023-03-31T23:53:39.606Z,37.00
2023-03-31T23:56:09.966Z,37.19
2023-03-31T23:58:40.739Z,37.10
